sensor_id;sensor_type;location;lat;lon;timestamp;P1;durP1;ratioP1;P2;durP2;ratioP2
21581;SDS011;10952;50.836;4.348;2024-01-25T00:00:47;53.60;;;7.63;;
21581;SDS011;10952;50.836;4.348;2024-01-25T00:03:13;60.57;;;7.33;;
21581;SDS011;10952;50.836;4.348;2024-01-25T00:05:39;56.27;;;8.90;;
21581;SDS011;10952;50.836;4.348;2024-01-25T00:08:08;68.43;;;9.03;;
21581;SDS011;10952;50.836;4.348;2024-01-25T00:10:34;51.83;;;9.23;;
21581;SDS011;10952;50.836;4.348;2024-01-25T00:13:00;49.60;;;8.17;;
21581;SDS011;10952;50.836;4.348;2024-01-25T00:18:00;39.83;;;6.97;;
21581;SDS011;10952;50.836;4.348;2024-01-25T00:20:26;57.53;;;8.30;;
21581;SDS011;10952;50.836;4.348;2024-01-25T00:23:07;63.83;;;8.93;;
21581;SDS011;10952;50.836;4.348;2024-01-25T00:25:33;57.40;;;8.80;;
21581;SDS011;10952;50.836;4.348;2024-01-25T00:27:59;58.50;;;8.40;;
21581;SDS011;10952;50.836;4.348;2024-01-25T00:30:27;44.00;;;8.13;;
21581;SDS011;10952;50.836;4.348;2024-01-25T00:32:53;55.03;;;7.90;;
21581;SDS011;10952;50.836;4.348;2024-01-25T00:35:21;53.77;;;8.03;;
21581;SDS011;10952;50.836;4.348;2024-01-25T00:37:49;57.13;;;7.90;;
21581;SDS011;10952;50.836;4.348;2024-01-25T00:40:16;43.90;;;7.97;;
21581;SDS011;10952;50.836;4.348;2024-01-25T00:42:44;65.13;;;8.13;;
21581;SDS011;10952;50.836;4.348;2024-01-25T00:45:18;54.43;;;8.37;;
21581;SDS011;10952;50.836;4.348;2024-01-25T00:47:48;56.67;;;9.00;;
21581;SDS011;10952;50.836;4.348;2024-01-25T00:50:15;59.53;;;8.50;;
21581;SDS011;10952;50.836;4.348;2024-01-25T00:52:43;66.23;;;8.33;;
21581;SDS011;10952;50.836;4.348;2024-01-25T00:55:09;56.97;;;8.53;;
21581;SDS011;10952;50.836;4.348;2024-01-25T00:57:36;52.40;;;8.30;;
21581;SDS011;10952;50.836;4.348;2024-01-25T01:00:03;57.47;;;8.00;;
21581;SDS011;10952;50.836;4.348;2024-01-25T01:02:31;46.03;;;7.80;;
21581;SDS011;10952;50.836;4.348;2024-01-25T01:05:01;50.73;;;8.43;;
21581;SDS011;10952;50.836;4.348;2024-01-25T01:07:29;65.43;;;7.83;;
21581;SDS011;10952;50.836;4.348;2024-01-25T01:12:29;63.97;;;8.80;;
21581;SDS011;10952;50.836;4.348;2024-01-25T01:14:56;46.97;;;7.10;;
21581;SDS011;10952;50.836;4.348;2024-01-25T01:17:23;57.70;;;8.97;;
21581;SDS011;10952;50.836;4.348;2024-01-25T01:19:51;57.20;;;7.90;;
21581;SDS011;10952;50.836;4.348;2024-01-25T01:22:17;57.57;;;7.80;;
21581;SDS011;10952;50.836;4.348;2024-01-25T01:27:12;51.53;;;8.53;;
21581;SDS011;10952;50.836;4.348;2024-01-25T01:29:38;56.00;;;8.57;;
21581;SDS011;10952;50.836;4.348;2024-01-25T01:32:03;59.27;;;8.73;;
21581;SDS011;10952;50.836;4.348;2024-01-25T01:34:29;54.93;;;8.00;;
21581;SDS011;10952;50.836;4.348;2024-01-25T01:36:55;51.10;;;8.00;;
21581;SDS011;10952;50.836;4.348;2024-01-25T01:39:20;64.43;;;8.03;;
21581;SDS011;10952;50.836;4.348;2024-01-25T01:41:46;59.90;;;7.87;;
21581;SDS011;10952;50.836;4.348;2024-01-25T01:44:13;54.40;;;8.40;;
21581;SDS011;10952;50.836;4.348;2024-01-25T01:46:39;42.63;;;7.17;;
21581;SDS011;10952;50.836;4.348;2024-01-25T01:49:06;64.17;;;8.03;;
21581;SDS011;10952;50.836;4.348;2024-01-25T01:51:34;55.07;;;7.23;;
21581;SDS011;10952;50.836;4.348;2024-01-25T01:54:00;60.90;;;7.87;;
21581;SDS011;10952;50.836;4.348;2024-01-25T01:56:28;59.27;;;8.07;;
21581;SDS011;10952;50.836;4.348;2024-01-25T01:58:55;53.93;;;9.80;;
21581;SDS011;10952;50.836;4.348;2024-01-25T02:01:23;53.30;;;9.17;;
21581;SDS011;10952;50.836;4.348;2024-01-25T02:03:50;45.00;;;7.87;;
21581;SDS011;10952;50.836;4.348;2024-01-25T02:06:16;72.17;;;9.33;;
21581;SDS011;10952;50.836;4.348;2024-01-25T02:08:41;46.77;;;7.87;;
21581;SDS011;10952;50.836;4.348;2024-01-25T02:11:07;49.73;;;7.33;;
21581;SDS011;10952;50.836;4.348;2024-01-25T02:13:34;60.87;;;8.30;;
21581;SDS011;10952;50.836;4.348;2024-01-25T02:16:00;60.97;;;7.93;;
21581;SDS011;10952;50.836;4.348;2024-01-25T02:18:25;58.57;;;8.27;;
21581;SDS011;10952;50.836;4.348;2024-01-25T02:20:51;65.27;;;7.83;;
21581;SDS011;10952;50.836;4.348;2024-01-25T02:23:17;49.87;;;8.23;;
21581;SDS011;10952;50.836;4.348;2024-01-25T02:25:43;45.10;;;7.07;;
21581;SDS011;10952;50.836;4.348;2024-01-25T02:28:08;53.10;;;7.40;;
21581;SDS011;10952;50.836;4.348;2024-01-25T02:30:34;57.70;;;8.03;;
21581;SDS011;10952;50.836;4.348;2024-01-25T02:32:59;44.57;;;8.13;;
21581;SDS011;10952;50.836;4.348;2024-01-25T02:35:25;58.70;;;7.90;;
21581;SDS011;10952;50.836;4.348;2024-01-25T02:37:51;54.73;;;7.83;;
21581;SDS011;10952;50.836;4.348;2024-01-25T02:40:16;49.07;;;7.00;;
21581;SDS011;10952;50.836;4.348;2024-01-25T02:42:42;58.53;;;8.70;;
21581;SDS011;10952;50.836;4.348;2024-01-25T02:45:08;48.37;;;8.27;;
21581;SDS011;10952;50.836;4.348;2024-01-25T02:47:34;60.40;;;7.90;;
21581;SDS011;10952;50.836;4.348;2024-01-25T02:49:59;53.33;;;8.97;;
21581;SDS011;10952;50.836;4.348;2024-01-25T02:52:25;53.17;;;8.17;;
21581;SDS011;10952;50.836;4.348;2024-01-25T02:54:50;56.90;;;7.60;;
21581;SDS011;10952;50.836;4.348;2024-01-25T02:57:16;56.50;;;8.07;;
21581;SDS011;10952;50.836;4.348;2024-01-25T02:59:42;53.40;;;7.37;;
21581;SDS011;10952;50.836;4.348;2024-01-25T03:02:08;51.93;;;7.63;;
21581;SDS011;10952;50.836;4.348;2024-01-25T03:04:33;61.83;;;7.97;;
21581;SDS011;10952;50.836;4.348;2024-01-25T03:06:59;54.13;;;8.83;;
21581;SDS011;10952;50.836;4.348;2024-01-25T03:09:24;48.17;;;7.80;;
21581;SDS011;10952;50.836;4.348;2024-01-25T03:11:50;68.43;;;8.90;;
21581;SDS011;10952;50.836;4.348;2024-01-25T03:14:15;39.10;;;7.40;;
21581;SDS011;10952;50.836;4.348;2024-01-25T03:16:41;60.13;;;8.37;;
21581;SDS011;10952;50.836;4.348;2024-01-25T03:19:08;40.63;;;7.63;;
21581;SDS011;10952;50.836;4.348;2024-01-25T03:21:34;56.33;;;7.27;;
21581;SDS011;10952;50.836;4.348;2024-01-25T03:23:59;53.07;;;7.67;;
21581;SDS011;10952;50.836;4.348;2024-01-25T03:26:26;45.70;;;7.40;;
21581;SDS011;10952;50.836;4.348;2024-01-25T03:28:52;52.60;;;7.27;;
21581;SDS011;10952;50.836;4.348;2024-01-25T03:31:18;63.07;;;8.33;;
21581;SDS011;10952;50.836;4.348;2024-01-25T03:33:44;55.97;;;7.30;;
21581;SDS011;10952;50.836;4.348;2024-01-25T03:36:13;57.67;;;7.97;;
21581;SDS011;10952;50.836;4.348;2024-01-25T03:38:39;50.37;;;8.03;;
21581;SDS011;10952;50.836;4.348;2024-01-25T03:41:04;55.03;;;7.90;;
21581;SDS011;10952;50.836;4.348;2024-01-25T03:43:30;59.87;;;8.57;;
21581;SDS011;10952;50.836;4.348;2024-01-25T03:45:56;52.23;;;8.27;;
21581;SDS011;10952;50.836;4.348;2024-01-25T03:48:21;44.10;;;7.93;;
21581;SDS011;10952;50.836;4.348;2024-01-25T03:50:47;50.10;;;7.27;;
21581;SDS011;10952;50.836;4.348;2024-01-25T03:53:13;54.27;;;7.63;;
21581;SDS011;10952;50.836;4.348;2024-01-25T03:55:38;53.53;;;7.97;;
21581;SDS011;10952;50.836;4.348;2024-01-25T03:58:04;54.63;;;7.80;;
21581;SDS011;10952;50.836;4.348;2024-01-25T04:00:30;51.00;;;8.40;;
21581;SDS011;10952;50.836;4.348;2024-01-25T04:02:55;47.63;;;7.77;;
21581;SDS011;10952;50.836;4.348;2024-01-25T04:05:21;53.03;;;7.97;;
21581;SDS011;10952;50.836;4.348;2024-01-25T04:07:47;56.97;;;8.23;;
21581;SDS011;10952;50.836;4.348;2024-01-25T04:10:12;52.60;;;8.40;;
21581;SDS011;10952;50.836;4.348;2024-01-25T04:12:38;45.77;;;6.80;;
21581;SDS011;10952;50.836;4.348;2024-01-25T04:15:04;61.77;;;7.60;;
21581;SDS011;10952;50.836;4.348;2024-01-25T04:17:30;63.93;;;8.63;;
21581;SDS011;10952;50.836;4.348;2024-01-25T04:19:56;40.13;;;6.13;;
21581;SDS011;10952;50.836;4.348;2024-01-25T04:22:22;56.93;;;7.47;;
21581;SDS011;10952;50.836;4.348;2024-01-25T04:24:47;47.53;;;7.23;;
21581;SDS011;10952;50.836;4.348;2024-01-25T04:27:14;36.17;;;6.80;;
21581;SDS011;10952;50.836;4.348;2024-01-25T04:29:40;55.60;;;7.63;;
21581;SDS011;10952;50.836;4.348;2024-01-25T04:32:09;60.90;;;8.07;;
21581;SDS011;10952;50.836;4.348;2024-01-25T04:34:35;48.70;;;7.53;;
21581;SDS011;10952;50.836;4.348;2024-01-25T04:37:01;50.53;;;7.23;;
21581;SDS011;10952;50.836;4.348;2024-01-25T04:39:26;43.03;;;6.83;;
21581;SDS011;10952;50.836;4.348;2024-01-25T04:41:52;56.33;;;7.57;;
21581;SDS011;10952;50.836;4.348;2024-01-25T04:44:18;48.43;;;7.13;;
21581;SDS011;10952;50.836;4.348;2024-01-25T04:46:44;59.97;;;7.63;;
21581;SDS011;10952;50.836;4.348;2024-01-25T04:49:09;53.50;;;6.93;;
21581;SDS011;10952;50.836;4.348;2024-01-25T04:51:35;54.30;;;8.60;;
21581;SDS011;10952;50.836;4.348;2024-01-25T04:54:01;49.23;;;7.07;;
21581;SDS011;10952;50.836;4.348;2024-01-25T04:56:27;42.93;;;7.03;;
21581;SDS011;10952;50.836;4.348;2024-01-25T04:58:53;54.37;;;8.17;;
21581;SDS011;10952;50.836;4.348;2024-01-25T05:01:19;56.30;;;8.03;;
21581;SDS011;10952;50.836;4.348;2024-01-25T05:03:44;52.37;;;7.57;;
21581;SDS011;10952;50.836;4.348;2024-01-25T05:06:10;48.33;;;7.23;;
21581;SDS011;10952;50.836;4.348;2024-01-25T05:08:36;48.33;;;6.90;;
21581;SDS011;10952;50.836;4.348;2024-01-25T05:11:01;42.70;;;6.87;;
21581;SDS011;10952;50.836;4.348;2024-01-25T05:13:28;55.10;;;8.60;;
21581;SDS011;10952;50.836;4.348;2024-01-25T05:15:53;48.30;;;6.73;;
21581;SDS011;10952;50.836;4.348;2024-01-25T05:18:19;54.47;;;8.27;;
21581;SDS011;10952;50.836;4.348;2024-01-25T05:20:45;47.50;;;7.77;;
21581;SDS011;10952;50.836;4.348;2024-01-25T05:23:10;57.30;;;8.23;;
21581;SDS011;10952;50.836;4.348;2024-01-25T05:25:36;46.00;;;7.60;;
21581;SDS011;10952;50.836;4.348;2024-01-25T05:28:02;57.80;;;7.27;;
21581;SDS011;10952;50.836;4.348;2024-01-25T05:30:27;46.30;;;7.60;;
21581;SDS011;10952;50.836;4.348;2024-01-25T05:32:53;55.07;;;8.17;;
21581;SDS011;10952;50.836;4.348;2024-01-25T05:35:19;51.87;;;8.53;;
21581;SDS011;10952;50.836;4.348;2024-01-25T05:37:45;56.00;;;8.00;;
21581;SDS011;10952;50.836;4.348;2024-01-25T05:40:11;53.57;;;7.60;;
21581;SDS011;10952;50.836;4.348;2024-01-25T05:42:37;53.07;;;8.43;;
21581;SDS011;10952;50.836;4.348;2024-01-25T05:45:04;46.67;;;7.33;;
21581;SDS011;10952;50.836;4.348;2024-01-25T05:47:30;56.27;;;8.63;;
21581;SDS011;10952;50.836;4.348;2024-01-25T05:49:56;50.03;;;8.30;;
21581;SDS011;10952;50.836;4.348;2024-01-25T05:52:22;56.80;;;7.53;;
21581;SDS011;10952;50.836;4.348;2024-01-25T05:54:49;39.57;;;7.37;;
21581;SDS011;10952;50.836;4.348;2024-01-25T05:57:15;49.17;;;8.13;;
21581;SDS011;10952;50.836;4.348;2024-01-25T05:59:40;44.87;;;8.10;;
21581;SDS011;10952;50.836;4.348;2024-01-25T06:02:06;44.00;;;7.83;;
21581;SDS011;10952;50.836;4.348;2024-01-25T06:04:33;58.33;;;8.70;;
21581;SDS011;10952;50.836;4.348;2024-01-25T06:06:59;53.13;;;8.17;;
21581;SDS011;10952;50.836;4.348;2024-01-25T06:09:25;71.30;;;14.37;;
21581;SDS011;10952;50.836;4.348;2024-01-25T06:11:50;58.80;;;8.87;;
21581;SDS011;10952;50.836;4.348;2024-01-25T06:14:16;58.13;;;9.53;;
21581;SDS011;10952;50.836;4.348;2024-01-25T06:16:42;61.63;;;8.03;;
21581;SDS011;10952;50.836;4.348;2024-01-25T06:19:08;59.47;;;9.17;;
21581;SDS011;10952;50.836;4.348;2024-01-25T06:21:33;63.40;;;9.23;;
21581;SDS011;10952;50.836;4.348;2024-01-25T06:24:03;62.20;;;9.53;;
21581;SDS011;10952;50.836;4.348;2024-01-25T06:26:29;59.07;;;8.53;;
21581;SDS011;10952;50.836;4.348;2024-01-25T06:28:55;52.33;;;9.83;;
21581;SDS011;10952;50.836;4.348;2024-01-25T06:31:22;60.73;;;10.30;;
21581;SDS011;10952;50.836;4.348;2024-01-25T06:33:50;60.73;;;9.37;;
21581;SDS011;10952;50.836;4.348;2024-01-25T06:36:20;62.87;;;10.07;;
21581;SDS011;10952;50.836;4.348;2024-01-25T06:38:46;51.17;;;8.77;;
21581;SDS011;10952;50.836;4.348;2024-01-25T06:41:12;52.27;;;8.90;;
21581;SDS011;10952;50.836;4.348;2024-01-25T06:43:38;54.90;;;9.20;;
21581;SDS011;10952;50.836;4.348;2024-01-25T06:46:05;55.40;;;10.23;;
21581;SDS011;10952;50.836;4.348;2024-01-25T06:48:31;55.87;;;10.43;;
21581;SDS011;10952;50.836;4.348;2024-01-25T06:50:57;62.90;;;12.17;;
21581;SDS011;10952;50.836;4.348;2024-01-25T06:53:23;56.50;;;11.97;;
21581;SDS011;10952;50.836;4.348;2024-01-25T06:55:49;64.83;;;11.93;;
21581;SDS011;10952;50.836;4.348;2024-01-25T06:58:14;57.83;;;13.07;;
21581;SDS011;10952;50.836;4.348;2024-01-25T07:00:40;51.80;;;11.80;;
21581;SDS011;10952;50.836;4.348;2024-01-25T07:03:07;54.93;;;12.83;;
21581;SDS011;10952;50.836;4.348;2024-01-25T07:05:33;53.60;;;12.70;;
21581;SDS011;10952;50.836;4.348;2024-01-25T07:08:00;58.20;;;14.50;;
21581;SDS011;10952;50.836;4.348;2024-01-25T07:10:26;50.47;;;14.17;;
21581;SDS011;10952;50.836;4.348;2024-01-25T07:12:52;59.10;;;14.70;;
21581;SDS011;10952;50.836;4.348;2024-01-25T07:15:18;65.00;;;19.37;;
21581;SDS011;10952;50.836;4.348;2024-01-25T07:17:44;61.77;;;15.27;;
21581;SDS011;10952;50.836;4.348;2024-01-25T07:20:10;55.60;;;14.53;;
21581;SDS011;10952;50.836;4.348;2024-01-25T07:22:36;66.17;;;15.30;;
21581;SDS011;10952;50.836;4.348;2024-01-25T07:25:01;66.93;;;14.33;;
21581;SDS011;10952;50.836;4.348;2024-01-25T07:27:27;61.07;;;13.63;;
21581;SDS011;10952;50.836;4.348;2024-01-25T07:29:53;63.20;;;13.97;;
21581;SDS011;10952;50.836;4.348;2024-01-25T07:32:19;60.93;;;14.13;;
21581;SDS011;10952;50.836;4.348;2024-01-25T07:34:45;64.67;;;15.70;;
21581;SDS011;10952;50.836;4.348;2024-01-25T07:37:11;44.27;;;13.50;;
21581;SDS011;10952;50.836;4.348;2024-01-25T07:39:37;55.43;;;15.07;;
21581;SDS011;10952;50.836;4.348;2024-01-25T07:42:03;65.50;;;14.10;;
21581;SDS011;10952;50.836;4.348;2024-01-25T07:44:28;48.60;;;13.30;;
21581;SDS011;10952;50.836;4.348;2024-01-25T07:46:54;49.07;;;13.13;;
21581;SDS011;10952;50.836;4.348;2024-01-25T07:49:20;56.40;;;14.23;;
21581;SDS011;10952;50.836;4.348;2024-01-25T07:51:45;47.63;;;13.30;;
21581;SDS011;10952;50.836;4.348;2024-01-25T07:54:12;60.57;;;14.67;;
21581;SDS011;10952;50.836;4.348;2024-01-25T07:56:38;54.37;;;13.73;;
21581;SDS011;10952;50.836;4.348;2024-01-25T07:59:04;54.50;;;13.43;;
21581;SDS011;10952;50.836;4.348;2024-01-25T08:01:29;64.07;;;17.43;;
21581;SDS011;10952;50.836;4.348;2024-01-25T08:03:55;56.20;;;13.83;;
21581;SDS011;10952;50.836;4.348;2024-01-25T08:06:21;60.47;;;13.27;;
21581;SDS011;10952;50.836;4.348;2024-01-25T08:08:47;55.33;;;13.43;;
21581;SDS011;10952;50.836;4.348;2024-01-25T08:11:13;45.27;;;14.53;;
21581;SDS011;10952;50.836;4.348;2024-01-25T08:13:43;54.17;;;13.50;;
21581;SDS011;10952;50.836;4.348;2024-01-25T08:16:09;45.23;;;13.93;;
21581;SDS011;10952;50.836;4.348;2024-01-25T08:18:39;46.67;;;14.50;;
21581;SDS011;10952;50.836;4.348;2024-01-25T08:21:04;51.40;;;15.83;;
21581;SDS011;10952;50.836;4.348;2024-01-25T08:23:35;52.23;;;14.60;;
21581;SDS011;10952;50.836;4.348;2024-01-25T08:26:03;51.07;;;14.57;;
21581;SDS011;10952;50.836;4.348;2024-01-25T08:28:32;48.03;;;13.57;;
21581;SDS011;10952;50.836;4.348;2024-01-25T08:30:59;46.70;;;15.17;;
21581;SDS011;10952;50.836;4.348;2024-01-25T08:35:56;41.97;;;13.63;;
21581;SDS011;10952;50.836;4.348;2024-01-25T08:38:22;45.63;;;14.30;;
21581;SDS011;10952;50.836;4.348;2024-01-25T08:40:48;46.47;;;14.27;;
21581;SDS011;10952;50.836;4.348;2024-01-25T08:43:15;35.83;;;12.80;;
21581;SDS011;10952;50.836;4.348;2024-01-25T08:45:42;38.70;;;13.37;;
21581;SDS011;10952;50.836;4.348;2024-01-25T08:48:08;37.70;;;12.43;;
21581;SDS011;10952;50.836;4.348;2024-01-25T08:50:35;37.17;;;13.23;;
21581;SDS011;10952;50.836;4.348;2024-01-25T08:53:01;32.13;;;11.57;;
21581;SDS011;10952;50.836;4.348;2024-01-25T08:55:27;39.63;;;11.97;;
21581;SDS011;10952;50.836;4.348;2024-01-25T08:57:53;36.40;;;12.30;;
21581;SDS011;10952;50.836;4.348;2024-01-25T09:00:18;31.03;;;10.67;;
21581;SDS011;10952;50.836;4.348;2024-01-25T09:02:44;38.87;;;12.97;;
21581;SDS011;10952;50.836;4.348;2024-01-25T09:05:10;36.60;;;12.40;;
21581;SDS011;10952;50.836;4.348;2024-01-25T09:07:37;33.43;;;12.73;;
21581;SDS011;10952;50.836;4.348;2024-01-25T09:10:02;33.50;;;12.40;;
21581;SDS011;10952;50.836;4.348;2024-01-25T09:12:29;34.67;;;11.63;;
21581;SDS011;10952;50.836;4.348;2024-01-25T09:14:55;36.30;;;12.83;;
21581;SDS011;10952;50.836;4.348;2024-01-25T09:17:21;44.93;;;13.33;;
21581;SDS011;10952;50.836;4.348;2024-01-25T09:19:50;38.13;;;12.67;;
21581;SDS011;10952;50.836;4.348;2024-01-25T09:22:17;47.13;;;13.73;;
21581;SDS011;10952;50.836;4.348;2024-01-25T09:24:44;51.00;;;14.93;;
21581;SDS011;10952;50.836;4.348;2024-01-25T09:27:11;45.43;;;14.30;;
21581;SDS011;10952;50.836;4.348;2024-01-25T09:29:37;56.17;;;15.17;;
21581;SDS011;10952;50.836;4.348;2024-01-25T09:32:05;50.20;;;15.13;;
21581;SDS011;10952;50.836;4.348;2024-01-25T09:34:35;61.13;;;17.03;;
21581;SDS011;10952;50.836;4.348;2024-01-25T09:37:01;61.13;;;17.50;;
21581;SDS011;10952;50.836;4.348;2024-01-25T09:39:27;54.30;;;17.97;;
21581;SDS011;10952;50.836;4.348;2024-01-25T09:41:53;64.97;;;19.00;;
21581;SDS011;10952;50.836;4.348;2024-01-25T09:44:19;67.13;;;19.57;;
21581;SDS011;10952;50.836;4.348;2024-01-25T09:46:45;62.30;;;18.57;;
21581;SDS011;10952;50.836;4.348;2024-01-25T09:49:11;65.30;;;19.53;;
21581;SDS011;10952;50.836;4.348;2024-01-25T09:51:38;60.90;;;19.17;;
21581;SDS011;10952;50.836;4.348;2024-01-25T09:54:10;61.67;;;18.73;;
21581;SDS011;10952;50.836;4.348;2024-01-25T09:56:36;61.87;;;18.77;;
21581;SDS011;10952;50.836;4.348;2024-01-25T09:59:04;72.33;;;21.03;;
21581;SDS011;10952;50.836;4.348;2024-01-25T10:01:29;70.83;;;19.83;;
21581;SDS011;10952;50.836;4.348;2024-01-25T10:03:55;63.43;;;19.30;;
21581;SDS011;10952;50.836;4.348;2024-01-25T10:06:21;72.00;;;20.43;;
21581;SDS011;10952;50.836;4.348;2024-01-25T10:08:48;73.77;;;21.50;;
21581;SDS011;10952;50.836;4.348;2024-01-25T10:11:13;64.53;;;20.87;;
21581;SDS011;10952;50.836;4.348;2024-01-25T10:13:47;71.50;;;20.67;;
21581;SDS011;10952;50.836;4.348;2024-01-25T10:16:15;73.73;;;19.97;;
21581;SDS011;10952;50.836;4.348;2024-01-25T10:18:42;69.67;;;19.43;;
21581;SDS011;10952;50.836;4.348;2024-01-25T10:21:12;62.37;;;18.53;;
21581;SDS011;10952;50.836;4.348;2024-01-25T10:23:39;69.87;;;20.20;;
21581;SDS011;10952;50.836;4.348;2024-01-25T10:26:05;70.03;;;19.47;;
21581;SDS011;10952;50.836;4.348;2024-01-25T10:28:33;66.10;;;20.07;;
21581;SDS011;10952;50.836;4.348;2024-01-25T10:31:02;61.57;;;17.60;;
21581;SDS011;10952;50.836;4.348;2024-01-25T10:33:32;56.13;;;16.60;;
21581;SDS011;10952;50.836;4.348;2024-01-25T10:36:02;55.33;;;16.67;;
21581;SDS011;10952;50.836;4.348;2024-01-25T10:38:31;46.03;;;14.73;;
21581;SDS011;10952;50.836;4.348;2024-01-25T10:41:04;49.40;;;14.60;;
21581;SDS011;10952;50.836;4.348;2024-01-25T10:43:32;49.57;;;15.27;;
21581;SDS011;10952;50.836;4.348;2024-01-25T10:45:58;48.63;;;16.77;;
21581;SDS011;10952;50.836;4.348;2024-01-25T10:48:25;47.70;;;15.80;;
21581;SDS011;10952;50.836;4.348;2024-01-25T10:50:52;42.30;;;12.80;;
21581;SDS011;10952;50.836;4.348;2024-01-25T10:53:24;49.03;;;13.60;;
21581;SDS011;10952;50.836;4.348;2024-01-25T10:56:04;46.97;;;13.60;;
21581;SDS011;10952;50.836;4.348;2024-01-25T10:58:34;43.90;;;13.80;;
21581;SDS011;10952;50.836;4.348;2024-01-25T11:01:09;42.13;;;12.97;;
21581;SDS011;10952;50.836;4.348;2024-01-25T11:03:40;43.30;;;12.73;;
21581;SDS011;10952;50.836;4.348;2024-01-25T11:06:08;36.43;;;12.27;;
21581;SDS011;10952;50.836;4.348;2024-01-25T11:08:36;31.03;;;11.10;;
21581;SDS011;10952;50.836;4.348;2024-01-25T11:11:05;41.13;;;11.57;;
21581;SDS011;10952;50.836;4.348;2024-01-25T11:13:40;38.97;;;11.43;;
21581;SDS011;10952;50.836;4.348;2024-01-25T11:18:52;42.00;;;12.23;;
21581;SDS011;10952;50.836;4.348;2024-01-25T11:27:12;38.77;;;10.63;;
21581;SDS011;10952;50.836;4.348;2024-01-25T11:29:39;43.77;;;11.47;;
21581;SDS011;10952;50.836;4.348;2024-01-25T11:32:07;42.30;;;10.93;;
21581;SDS011;10952;50.836;4.348;2024-01-25T11:34:34;36.37;;;10.03;;
21581;SDS011;10952;50.836;4.348;2024-01-25T11:37:00;45.80;;;11.67;;
21581;SDS011;10952;50.836;4.348;2024-01-25T11:39:25;47.30;;;11.40;;
21581;SDS011;10952;50.836;4.348;2024-01-25T11:41:52;39.93;;;11.63;;
21581;SDS011;10952;50.836;4.348;2024-01-25T11:44:18;36.30;;;10.33;;
21581;SDS011;10952;50.836;4.348;2024-01-25T11:46:45;34.93;;;11.17;;
21581;SDS011;10952;50.836;4.348;2024-01-25T11:49:11;35.90;;;11.37;;
21581;SDS011;10952;50.836;4.348;2024-01-25T11:51:37;38.43;;;10.10;;
21581;SDS011;10952;50.836;4.348;2024-01-25T11:54:04;35.27;;;11.00;;
21581;SDS011;10952;50.836;4.348;2024-01-25T11:56:33;38.63;;;11.00;;
21581;SDS011;10952;50.836;4.348;2024-01-25T11:59:05;54.43;;;13.20;;
21581;SDS011;10952;50.836;4.348;2024-01-25T12:01:34;38.50;;;12.87;;
21581;SDS011;10952;50.836;4.348;2024-01-25T12:04:04;39.10;;;11.20;;
21581;SDS011;10952;50.836;4.348;2024-01-25T12:06:33;37.77;;;11.80;;
21581;SDS011;10952;50.836;4.348;2024-01-25T12:09:05;37.73;;;11.23;;
21581;SDS011;10952;50.836;4.348;2024-01-25T12:11:40;33.13;;;10.87;;
21581;SDS011;10952;50.836;4.348;2024-01-25T12:14:09;36.43;;;11.70;;
21581;SDS011;10952;50.836;4.348;2024-01-25T12:16:38;37.37;;;11.93;;
21581;SDS011;10952;50.836;4.348;2024-01-25T12:19:07;40.60;;;13.03;;
21581;SDS011;10952;50.836;4.348;2024-01-25T12:21:36;37.77;;;13.23;;
21581;SDS011;10952;50.836;4.348;2024-01-25T12:24:14;44.17;;;13.10;;
21581;SDS011;10952;50.836;4.348;2024-01-25T12:26:41;37.20;;;12.43;;
21581;SDS011;10952;50.836;4.348;2024-01-25T12:29:10;35.43;;;12.97;;
21581;SDS011;10952;50.836;4.348;2024-01-25T12:31:37;38.63;;;14.03;;
21581;SDS011;10952;50.836;4.348;2024-01-25T12:34:19;34.70;;;12.53;;
21581;SDS011;10952;50.836;4.348;2024-01-25T12:36:45;37.33;;;13.40;;
21581;SDS011;10952;50.836;4.348;2024-01-25T12:39:10;33.73;;;13.20;;
21581;SDS011;10952;50.836;4.348;2024-01-25T12:41:39;37.90;;;13.73;;
21581;SDS011;10952;50.836;4.348;2024-01-25T12:44:06;37.73;;;11.37;;
21581;SDS011;10952;50.836;4.348;2024-01-25T12:46:33;35.30;;;12.70;;
21581;SDS011;10952;50.836;4.348;2024-01-25T12:48:59;32.43;;;13.60;;
21581;SDS011;10952;50.836;4.348;2024-01-25T12:51:25;33.33;;;13.43;;
21581;SDS011;10952;50.836;4.348;2024-01-25T12:53:51;30.13;;;11.53;;
21581;SDS011;10952;50.836;4.348;2024-01-25T12:56:17;23.63;;;10.97;;
21581;SDS011;10952;50.836;4.348;2024-01-25T12:58:43;26.97;;;9.50;;
21581;SDS011;10952;50.836;4.348;2024-01-25T13:01:09;22.37;;;9.80;;
21581;SDS011;10952;50.836;4.348;2024-01-25T13:03:35;27.00;;;9.03;;
21581;SDS011;10952;50.836;4.348;2024-01-25T13:06:02;26.03;;;9.10;;
21581;SDS011;10952;50.836;4.348;2024-01-25T13:08:28;26.20;;;8.93;;
21581;SDS011;10952;50.836;4.348;2024-01-25T13:10:59;24.73;;;9.87;;
21581;SDS011;10952;50.836;4.348;2024-01-25T13:13:29;19.23;;;8.13;;
21581;SDS011;10952;50.836;4.348;2024-01-25T13:15:59;20.33;;;8.37;;
21581;SDS011;10952;50.836;4.348;2024-01-25T13:18:25;16.00;;;7.67;;
21581;SDS011;10952;50.836;4.348;2024-01-25T13:21:00;19.37;;;7.97;;
21581;SDS011;10952;50.836;4.348;2024-01-25T13:23:29;15.17;;;8.30;;
21581;SDS011;10952;50.836;4.348;2024-01-25T13:25:56;18.10;;;8.50;;
21581;SDS011;10952;50.836;4.348;2024-01-25T13:30:52;17.03;;;7.40;;
21581;SDS011;10952;50.836;4.348;2024-01-25T13:33:28;15.23;;;7.10;;
21581;SDS011;10952;50.836;4.348;2024-01-25T13:36:02;24.00;;;8.70;;
21581;SDS011;10952;50.836;4.348;2024-01-25T13:38:39;12.53;;;7.40;;
21581;SDS011;10952;50.836;4.348;2024-01-25T13:41:07;14.30;;;7.93;;
21581;SDS011;10952;50.836;4.348;2024-01-25T13:43:33;16.20;;;9.00;;
21581;SDS011;10952;50.836;4.348;2024-01-25T13:46:01;15.60;;;8.90;;
21581;SDS011;10952;50.836;4.348;2024-01-25T13:48:32;17.93;;;9.13;;
21581;SDS011;10952;50.836;4.348;2024-01-25T13:51:01;18.83;;;9.03;;
21581;SDS011;10952;50.836;4.348;2024-01-25T13:53:28;18.53;;;9.50;;
21581;SDS011;10952;50.836;4.348;2024-01-25T13:55:56;23.43;;;10.70;;
21581;SDS011;10952;50.836;4.348;2024-01-25T13:58:24;20.33;;;10.17;;
21581;SDS011;10952;50.836;4.348;2024-01-25T14:00:53;22.00;;;12.27;;
21581;SDS011;10952;50.836;4.348;2024-01-25T14:03:20;19.73;;;10.40;;
21581;SDS011;10952;50.836;4.348;2024-01-25T14:05:46;19.73;;;11.50;;
21581;SDS011;10952;50.836;4.348;2024-01-25T14:08:13;20.97;;;12.77;;
21581;SDS011;10952;50.836;4.348;2024-01-25T14:10:40;22.33;;;12.37;;
21581;SDS011;10952;50.836;4.348;2024-01-25T14:13:09;20.10;;;13.00;;
21581;SDS011;10952;50.836;4.348;2024-01-25T14:15:35;28.97;;;14.03;;
21581;SDS011;10952;50.836;4.348;2024-01-25T14:20:38;22.30;;;13.27;;
21581;SDS011;10952;50.836;4.348;2024-01-25T14:23:10;22.97;;;13.53;;
21581;SDS011;10952;50.836;4.348;2024-01-25T14:25:36;28.37;;;14.67;;
21581;SDS011;10952;50.836;4.348;2024-01-25T14:28:09;22.37;;;13.83;;
21581;SDS011;10952;50.836;4.348;2024-01-25T14:30:36;22.37;;;13.03;;
21581;SDS011;10952;50.836;4.348;2024-01-25T14:35:33;20.97;;;13.50;;
21581;SDS011;10952;50.836;4.348;2024-01-25T14:38:00;27.30;;;14.57;;
21581;SDS011;10952;50.836;4.348;2024-01-25T14:40:26;28.87;;;15.57;;
21581;SDS011;10952;50.836;4.348;2024-01-25T14:42:51;30.57;;;16.20;;
21581;SDS011;10952;50.836;4.348;2024-01-25T14:45:23;27.37;;;14.53;;
21581;SDS011;10952;50.836;4.348;2024-01-25T14:50:20;25.80;;;14.60;;
21581;SDS011;10952;50.836;4.348;2024-01-25T14:55:18;23.33;;;12.43;;
21581;SDS011;10952;50.836;4.348;2024-01-25T15:00:13;24.20;;;14.50;;